sensor_id;sensor_type;location;lat;lon;timestamp;P1;durP1;ratioP1;P2;durP2;ratioP2
78838;SDS011;68405;47.190;27.558;2024-03-08T00:00:32;11.90;;;7.80;;
78838;SDS011;68405;47.190;27.558;2024-03-08T00:03:21;13.40;;;7.30;;
78838;SDS011;68405;47.190;27.558;2024-03-08T00:05:50;16.40;;;8.30;;
78838;SDS011;68405;47.190;27.558;2024-03-08T00:08:19;13.70;;;7.60;;
78838;SDS011;68405;47.190;27.558;2024-03-08T00:10:48;15.10;;;8.60;;
78838;SDS011;68405;47.190;27.558;2024-03-08T00:13:17;12.50;;;7.60;;
78838;SDS011;68405;47.190;27.558;2024-03-08T00:15:46;14.70;;;7.80;;
78838;SDS011;68405;47.190;27.558;2024-03-08T00:18:15;15.40;;;9.30;;
78838;SDS011;68405;47.190;27.558;2024-03-08T00:20:44;16.60;;;9.10;;
78838;SDS011;68405;47.190;27.558;2024-03-08T00:23:14;12.70;;;7.20;;
78838;SDS011;68405;47.190;27.558;2024-03-08T00:25:43;15.10;;;8.40;;
78838;SDS011;68405;47.190;27.558;2024-03-08T00:28:12;16.00;;;9.00;;
78838;SDS011;68405;47.190;27.558;2024-03-08T00:30:43;14.80;;;8.00;;
78838;SDS011;68405;47.190;27.558;2024-03-08T00:33:13;15.60;;;7.40;;
78838;SDS011;68405;47.190;27.558;2024-03-08T00:35:42;16.40;;;8.80;;
78838;SDS011;68405;47.190;27.558;2024-03-08T00:38:11;14.80;;;7.60;;
78838;SDS011;68405;47.190;27.558;2024-03-08T00:40:40;10.30;;;5.90;;
78838;SDS011;68405;47.190;27.558;2024-03-08T00:43:09;13.90;;;7.90;;
78838;SDS011;68405;47.190;27.558;2024-03-08T00:45:40;17.00;;;9.10;;
78838;SDS011;68405;47.190;27.558;2024-03-08T00:48:09;13.60;;;8.10;;
78838;SDS011;68405;47.190;27.558;2024-03-08T00:50:38;15.20;;;7.90;;
78838;SDS011;68405;47.190;27.558;2024-03-08T00:53:07;15.70;;;8.60;;
78838;SDS011;68405;47.190;27.558;2024-03-08T00:55:38;16.90;;;8.50;;
78838;SDS011;68405;47.190;27.558;2024-03-08T00:58:07;15.70;;;8.30;;
78838;SDS011;68405;47.190;27.558;2024-03-08T01:00:36;14.30;;;8.50;;
78838;SDS011;68405;47.190;27.558;2024-03-08T01:03:05;16.70;;;9.30;;
78838;SDS011;68405;47.190;27.558;2024-03-08T01:05:34;15.10;;;8.30;;
78838;SDS011;68405;47.190;27.558;2024-03-08T01:08:04;16.00;;;8.30;;
78838;SDS011;68405;47.190;27.558;2024-03-08T01:10:34;15.90;;;9.00;;
78838;SDS011;68405;47.190;27.558;2024-03-08T01:13:04;16.40;;;8.40;;
78838;SDS011;68405;47.190;27.558;2024-03-08T01:15:33;19.00;;;10.20;;
78838;SDS011;68405;47.190;27.558;2024-03-08T01:18:02;16.80;;;8.70;;
78838;SDS011;68405;47.190;27.558;2024-03-08T01:20:32;21.80;;;9.90;;
78838;SDS011;68405;47.190;27.558;2024-03-08T01:23:01;17.30;;;9.20;;
78838;SDS011;68405;47.190;27.558;2024-03-08T01:25:32;13.60;;;6.00;;
78838;SDS011;68405;47.190;27.558;2024-03-08T01:28:02;16.50;;;8.60;;
78838;SDS011;68405;47.190;27.558;2024-03-08T01:30:31;16.80;;;9.10;;
78838;SDS011;68405;47.190;27.558;2024-03-08T01:33:01;15.30;;;8.60;;
78838;SDS011;68405;47.190;27.558;2024-03-08T01:35:30;15.70;;;9.20;;
78838;SDS011;68405;47.190;27.558;2024-03-08T01:38:01;18.20;;;9.80;;
78838;SDS011;68405;47.190;27.558;2024-03-08T01:40:31;13.60;;;7.30;;
78838;SDS011;68405;47.190;27.558;2024-03-08T01:45:45;13.20;;;7.70;;
78838;SDS011;68405;47.190;27.558;2024-03-08T01:48:15;14.80;;;8.10;;
78838;SDS011;68405;47.190;27.558;2024-03-08T01:50:45;16.40;;;9.00;;
78838;SDS011;68405;47.190;27.558;2024-03-08T01:53:15;14.90;;;8.80;;
78838;SDS011;68405;47.190;27.558;2024-03-08T01:55:45;18.10;;;9.50;;
78838;SDS011;68405;47.190;27.558;2024-03-08T01:58:17;15.00;;;8.70;;
78838;SDS011;68405;47.190;27.558;2024-03-08T02:00:48;15.20;;;8.70;;
78838;SDS011;68405;47.190;27.558;2024-03-08T02:03:18;14.30;;;8.30;;
78838;SDS011;68405;47.190;27.558;2024-03-08T02:05:48;16.30;;;9.20;;
78838;SDS011;68405;47.190;27.558;2024-03-08T02:08:18;14.00;;;7.80;;
78838;SDS011;68405;47.190;27.558;2024-03-08T02:10:49;13.90;;;7.50;;
78838;SDS011;68405;47.190;27.558;2024-03-08T02:13:18;15.30;;;7.90;;
78838;SDS011;68405;47.190;27.558;2024-03-08T02:15:50;14.90;;;8.10;;
78838;SDS011;68405;47.190;27.558;2024-03-08T02:18:21;13.70;;;8.20;;
78838;SDS011;68405;47.190;27.558;2024-03-08T02:20:50;11.40;;;7.40;;
78838;SDS011;68405;47.190;27.558;2024-03-08T02:23:20;13.20;;;8.40;;
78838;SDS011;68405;47.190;27.558;2024-03-08T02:25:49;13.50;;;7.90;;
78838;SDS011;68405;47.190;27.558;2024-03-08T02:28:18;15.80;;;8.90;;
78838;SDS011;68405;47.190;27.558;2024-03-08T02:30:48;10.00;;;5.60;;
78838;SDS011;68405;47.190;27.558;2024-03-08T02:33:18;17.10;;;9.00;;
78838;SDS011;68405;47.190;27.558;2024-03-08T02:35:47;18.30;;;9.80;;
78838;SDS011;68405;47.190;27.558;2024-03-08T02:38:17;16.10;;;8.70;;
78838;SDS011;68405;47.190;27.558;2024-03-08T02:40:48;15.20;;;8.30;;
78838;SDS011;68405;47.190;27.558;2024-03-08T02:43:18;14.20;;;8.00;;
78838;SDS011;68405;47.190;27.558;2024-03-08T02:45:48;17.20;;;8.90;;
78838;SDS011;68405;47.190;27.558;2024-03-08T02:48:19;13.80;;;7.40;;
78838;SDS011;68405;47.190;27.558;2024-03-08T02:50:49;10.50;;;5.10;;
78838;SDS011;68405;47.190;27.558;2024-03-08T02:53:18;13.30;;;7.70;;
78838;SDS011;68405;47.190;27.558;2024-03-08T02:55:47;13.80;;;6.90;;
78838;SDS011;68405;47.190;27.558;2024-03-08T02:58:16;16.30;;;8.30;;
78838;SDS011;68405;47.190;27.558;2024-03-08T03:00:45;12.90;;;7.60;;
78838;SDS011;68405;47.190;27.558;2024-03-08T03:03:14;16.20;;;7.70;;
78838;SDS011;68405;47.190;27.558;2024-03-08T03:05:43;12.40;;;7.30;;
78838;SDS011;68405;47.190;27.558;2024-03-08T03:08:12;10.50;;;5.80;;
78838;SDS011;68405;47.190;27.558;2024-03-08T03:10:44;12.70;;;7.70;;
78838;SDS011;68405;47.190;27.558;2024-03-08T03:13:13;10.70;;;6.90;;
78838;SDS011;68405;47.190;27.558;2024-03-08T03:15:42;13.50;;;7.40;;
78838;SDS011;68405;47.190;27.558;2024-03-08T03:18:11;14.40;;;8.30;;
78838;SDS011;68405;47.190;27.558;2024-03-08T03:20:40;11.70;;;6.70;;
78838;SDS011;68405;47.190;27.558;2024-03-08T03:23:11;12.50;;;6.60;;
78838;SDS011;68405;47.190;27.558;2024-03-08T03:25:41;14.50;;;7.80;;
78838;SDS011;68405;47.190;27.558;2024-03-08T03:28:12;14.20;;;7.70;;
78838;SDS011;68405;47.190;27.558;2024-03-08T03:30:45;10.80;;;5.90;;
78838;SDS011;68405;47.190;27.558;2024-03-08T03:33:14;14.30;;;8.10;;
78838;SDS011;68405;47.190;27.558;2024-03-08T03:35:44;14.30;;;7.80;;
78838;SDS011;68405;47.190;27.558;2024-03-08T03:38:13;12.10;;;7.10;;
78838;SDS011;68405;47.190;27.558;2024-03-08T03:40:42;16.60;;;7.80;;
78838;SDS011;68405;47.190;27.558;2024-03-08T03:43:12;13.30;;;7.80;;
78838;SDS011;68405;47.190;27.558;2024-03-08T03:45:42;13.40;;;7.30;;
78838;SDS011;68405;47.190;27.558;2024-03-08T03:48:11;12.50;;;7.00;;
78838;SDS011;68405;47.190;27.558;2024-03-08T03:50:40;11.80;;;6.50;;
78838;SDS011;68405;47.190;27.558;2024-03-08T03:53:09;12.80;;;7.80;;
78838;SDS011;68405;47.190;27.558;2024-03-08T03:55:40;12.30;;;7.80;;
78838;SDS011;68405;47.190;27.558;2024-03-08T03:58:09;13.30;;;7.30;;
78838;SDS011;68405;47.190;27.558;2024-03-08T04:00:38;13.10;;;7.30;;
78838;SDS011;68405;47.190;27.558;2024-03-08T04:03:08;10.90;;;5.70;;
78838;SDS011;68405;47.190;27.558;2024-03-08T04:05:37;14.20;;;7.70;;
78838;SDS011;68405;47.190;27.558;2024-03-08T04:08:06;13.20;;;7.20;;
78838;SDS011;68405;47.190;27.558;2024-03-08T04:10:35;11.90;;;7.50;;
78838;SDS011;68405;47.190;27.558;2024-03-08T04:15:32;13.90;;;6.10;;
78838;SDS011;68405;47.190;27.558;2024-03-08T04:18:01;13.10;;;7.10;;
78838;SDS011;68405;47.190;27.558;2024-03-08T04:20:30;17.90;;;8.50;;
78838;SDS011;68405;47.190;27.558;2024-03-08T04:22:59;10.40;;;6.10;;
78838;SDS011;68405;47.190;27.558;2024-03-08T04:25:28;11.60;;;6.10;;
78838;SDS011;68405;47.190;27.558;2024-03-08T04:30:25;12.60;;;7.10;;
78838;SDS011;68405;47.190;27.558;2024-03-08T04:32:55;10.90;;;5.60;;
78838;SDS011;68405;47.190;27.558;2024-03-08T04:35:24;15.40;;;8.80;;
78838;SDS011;68405;47.190;27.558;2024-03-08T04:37:53;13.40;;;8.20;;
78838;SDS011;68405;47.190;27.558;2024-03-08T04:40:23;14.20;;;7.20;;
78838;SDS011;68405;47.190;27.558;2024-03-08T04:42:52;15.00;;;7.30;;
78838;SDS011;68405;47.190;27.558;2024-03-08T04:45:21;13.40;;;8.20;;
78838;SDS011;68405;47.190;27.558;2024-03-08T04:47:52;13.40;;;7.50;;
78838;SDS011;68405;47.190;27.558;2024-03-08T04:50:21;13.50;;;7.40;;
78838;SDS011;68405;47.190;27.558;2024-03-08T04:52:50;12.20;;;7.30;;
78838;SDS011;68405;47.190;27.558;2024-03-08T04:55:19;12.90;;;8.10;;
78838;SDS011;68405;47.190;27.558;2024-03-08T04:57:48;13.80;;;7.40;;
78838;SDS011;68405;47.190;27.558;2024-03-08T05:00:17;8.90;;;5.70;;
78838;SDS011;68405;47.190;27.558;2024-03-08T05:02:47;9.30;;;5.60;;
78838;SDS011;68405;47.190;27.558;2024-03-08T05:05:20;13.10;;;7.60;;
78838;SDS011;68405;47.190;27.558;2024-03-08T05:07:49;15.50;;;7.90;;
78838;SDS011;68405;47.190;27.558;2024-03-08T05:10:18;11.80;;;6.90;;
78838;SDS011;68405;47.190;27.558;2024-03-08T05:12:47;12.90;;;7.40;;
78838;SDS011;68405;47.190;27.558;2024-03-08T05:15:16;15.40;;;8.60;;
78838;SDS011;68405;47.190;27.558;2024-03-08T05:17:47;10.90;;;6.60;;
78838;SDS011;68405;47.190;27.558;2024-03-08T05:20:16;14.30;;;7.30;;
78838;SDS011;68405;47.190;27.558;2024-03-08T05:22:46;13.20;;;6.90;;
78838;SDS011;68405;47.190;27.558;2024-03-08T05:25:15;14.10;;;7.60;;
78838;SDS011;68405;47.190;27.558;2024-03-08T05:27:45;15.30;;;8.10;;
78838;SDS011;68405;47.190;27.558;2024-03-08T05:30:15;12.60;;;7.50;;
78838;SDS011;68405;47.190;27.558;2024-03-08T05:32:44;19.70;;;8.00;;
78838;SDS011;68405;47.190;27.558;2024-03-08T05:35:13;18.80;;;7.70;;
78838;SDS011;68405;47.190;27.558;2024-03-08T05:37:43;14.60;;;8.10;;
78838;SDS011;68405;47.190;27.558;2024-03-08T05:40:12;17.60;;;8.60;;
78838;SDS011;68405;47.190;27.558;2024-03-08T05:42:42;15.40;;;7.90;;
78838;SDS011;68405;47.190;27.558;2024-03-08T05:45:11;17.00;;;8.90;;
78838;SDS011;68405;47.190;27.558;2024-03-08T05:47:41;13.10;;;7.40;;
78838;SDS011;68405;47.190;27.558;2024-03-08T05:50:10;14.50;;;8.20;;
78838;SDS011;68405;47.190;27.558;2024-03-08T05:52:41;14.00;;;7.60;;
78838;SDS011;68405;47.190;27.558;2024-03-08T05:55:11;15.00;;;7.90;;
78838;SDS011;68405;47.190;27.558;2024-03-08T05:57:41;18.40;;;7.80;;
78838;SDS011;68405;47.190;27.558;2024-03-08T06:00:12;13.30;;;8.40;;
78838;SDS011;68405;47.190;27.558;2024-03-08T06:02:42;14.90;;;8.90;;
78838;SDS011;68405;47.190;27.558;2024-03-08T06:05:11;15.80;;;8.30;;
78838;SDS011;68405;47.190;27.558;2024-03-08T06:07:40;17.70;;;9.60;;
78838;SDS011;68405;47.190;27.558;2024-03-08T06:10:10;11.60;;;7.10;;
78838;SDS011;68405;47.190;27.558;2024-03-08T06:12:40;15.40;;;9.10;;
78838;SDS011;68405;47.190;27.558;2024-03-08T06:15:09;14.80;;;7.70;;
78838;SDS011;68405;47.190;27.558;2024-03-08T06:17:41;15.70;;;8.90;;
78838;SDS011;68405;47.190;27.558;2024-03-08T06:20:11;16.30;;;9.80;;
78838;SDS011;68405;47.190;27.558;2024-03-08T06:22:40;19.60;;;9.90;;
78838;SDS011;68405;47.190;27.558;2024-03-08T06:25:09;15.30;;;6.30;;
78838;SDS011;68405;47.190;27.558;2024-03-08T06:27:40;15.80;;;8.80;;
78838;SDS011;68405;47.190;27.558;2024-03-08T06:30:10;15.20;;;8.60;;
78838;SDS011;68405;47.190;27.558;2024-03-08T06:32:40;12.90;;;8.10;;
78838;SDS011;68405;47.190;27.558;2024-03-08T06:35:10;14.80;;;8.60;;
78838;SDS011;68405;47.190;27.558;2024-03-08T06:37:39;14.50;;;8.80;;
78838;SDS011;68405;47.190;27.558;2024-03-08T06:40:09;13.50;;;8.60;;
78838;SDS011;68405;47.190;27.558;2024-03-08T06:42:40;15.60;;;7.60;;
78838;SDS011;68405;47.190;27.558;2024-03-08T06:45:10;12.00;;;8.50;;
78838;SDS011;68405;47.190;27.558;2024-03-08T06:47:39;20.10;;;9.00;;
78838;SDS011;68405;47.190;27.558;2024-03-08T06:50:10;16.50;;;8.60;;
78838;SDS011;68405;47.190;27.558;2024-03-08T06:52:40;14.40;;;8.60;;
78838;SDS011;68405;47.190;27.558;2024-03-08T06:55:11;11.50;;;7.70;;
78838;SDS011;68405;47.190;27.558;2024-03-08T06:57:40;15.70;;;8.80;;
78838;SDS011;68405;47.190;27.558;2024-03-08T07:00:10;14.90;;;8.50;;
78838;SDS011;68405;47.190;27.558;2024-03-08T07:02:45;14.30;;;8.30;;
78838;SDS011;68405;47.190;27.558;2024-03-08T07:05:15;16.10;;;9.10;;
78838;SDS011;68405;47.190;27.558;2024-03-08T07:07:45;17.90;;;9.80;;
78838;SDS011;68405;47.190;27.558;2024-03-08T07:10:15;17.40;;;9.00;;
78838;SDS011;68405;47.190;27.558;2024-03-08T07:12:44;13.30;;;8.70;;
78838;SDS011;68405;47.190;27.558;2024-03-08T07:15:13;15.10;;;7.30;;
78838;SDS011;68405;47.190;27.558;2024-03-08T07:17:42;14.90;;;8.60;;
78838;SDS011;68405;47.190;27.558;2024-03-08T07:20:12;14.20;;;9.20;;
78838;SDS011;68405;47.190;27.558;2024-03-08T07:22:45;13.40;;;9.00;;
78838;SDS011;68405;47.190;27.558;2024-03-08T07:25:15;16.00;;;10.40;;
78838;SDS011;68405;47.190;27.558;2024-03-08T07:27:48;14.70;;;9.10;;
78838;SDS011;68405;47.190;27.558;2024-03-08T07:30:18;14.30;;;9.40;;
78838;SDS011;68405;47.190;27.558;2024-03-08T07:33:06;19.20;;;10.60;;
78838;SDS011;68405;47.190;27.558;2024-03-08T07:35:38;16.90;;;10.20;;
78838;SDS011;68405;47.190;27.558;2024-03-08T07:38:07;18.00;;;11.50;;
78838;SDS011;68405;47.190;27.558;2024-03-08T07:40:38;17.50;;;9.20;;
78838;SDS011;68405;47.190;27.558;2024-03-08T07:43:11;13.90;;;9.20;;
78838;SDS011;68405;47.190;27.558;2024-03-08T07:45:40;15.10;;;9.80;;
78838;SDS011;68405;47.190;27.558;2024-03-08T07:48:09;15.00;;;9.90;;
78838;SDS011;68405;47.190;27.558;2024-03-08T07:50:39;17.70;;;10.40;;
78838;SDS011;68405;47.190;27.558;2024-03-08T07:53:09;16.80;;;11.10;;
78838;SDS011;68405;47.190;27.558;2024-03-08T07:55:38;14.10;;;8.70;;
78838;SDS011;68405;47.190;27.558;2024-03-08T07:58:09;12.00;;;7.70;;
78838;SDS011;68405;47.190;27.558;2024-03-08T08:00:38;18.60;;;10.20;;
78838;SDS011;68405;47.190;27.558;2024-03-08T08:03:09;18.30;;;9.30;;
78838;SDS011;68405;47.190;27.558;2024-03-08T08:05:39;17.80;;;11.30;;
78838;SDS011;68405;47.190;27.558;2024-03-08T08:08:08;16.00;;;9.50;;
78838;SDS011;68405;47.190;27.558;2024-03-08T08:10:37;14.70;;;8.80;;
78838;SDS011;68405;47.190;27.558;2024-03-08T08:13:06;17.10;;;10.50;;
78838;SDS011;68405;47.190;27.558;2024-03-08T08:15:35;15.10;;;8.60;;
78838;SDS011;68405;47.190;27.558;2024-03-08T08:18:05;14.20;;;7.10;;
78838;SDS011;68405;47.190;27.558;2024-03-08T08:20:36;16.20;;;8.90;;
78838;SDS011;68405;47.190;27.558;2024-03-08T08:23:05;14.60;;;9.30;;
78838;SDS011;68405;47.190;27.558;2024-03-08T08:25:35;15.80;;;10.10;;
78838;SDS011;68405;47.190;27.558;2024-03-08T08:28:05;15.00;;;9.70;;
78838;SDS011;68405;47.190;27.558;2024-03-08T08:30:35;16.90;;;10.80;;
78838;SDS011;68405;47.190;27.558;2024-03-08T08:33:04;17.70;;;10.60;;
78838;SDS011;68405;47.190;27.558;2024-03-08T08:35:35;16.00;;;10.00;;
78838;SDS011;68405;47.190;27.558;2024-03-08T08:38:04;15.10;;;9.70;;
78838;SDS011;68405;47.190;27.558;2024-03-08T08:40:34;14.90;;;10.00;;
78838;SDS011;68405;47.190;27.558;2024-03-08T08:43:03;14.50;;;9.00;;
78838;SDS011;68405;47.190;27.558;2024-03-08T08:45:32;13.80;;;9.10;;
78838;SDS011;68405;47.190;27.558;2024-03-08T08:48:01;14.00;;;8.40;;
78838;SDS011;68405;47.190;27.558;2024-03-08T08:50:32;15.40;;;10.70;;
78838;SDS011;68405;47.190;27.558;2024-03-08T08:53:01;15.40;;;10.20;;
78838;SDS011;68405;47.190;27.558;2024-03-08T08:55:31;13.90;;;9.40;;
78838;SDS011;68405;47.190;27.558;2024-03-08T08:58:02;19.70;;;12.30;;
78838;SDS011;68405;47.190;27.558;2024-03-08T09:00:34;14.90;;;10.10;;
78838;SDS011;68405;47.190;27.558;2024-03-08T09:03:03;16.10;;;11.00;;
78838;SDS011;68405;47.190;27.558;2024-03-08T09:05:33;18.70;;;11.30;;
78838;SDS011;68405;47.190;27.558;2024-03-08T09:08:02;16.90;;;11.30;;
78838;SDS011;68405;47.190;27.558;2024-03-08T09:10:32;16.40;;;10.50;;
78838;SDS011;68405;47.190;27.558;2024-03-08T09:13:01;16.20;;;10.80;;
78838;SDS011;68405;47.190;27.558;2024-03-08T09:15:31;17.00;;;10.90;;
78838;SDS011;68405;47.190;27.558;2024-03-08T09:18:00;13.20;;;9.10;;
78838;SDS011;68405;47.190;27.558;2024-03-08T09:20:29;15.00;;;8.90;;
78838;SDS011;68405;47.190;27.558;2024-03-08T09:22:59;17.70;;;9.70;;
78838;SDS011;68405;47.190;27.558;2024-03-08T09:25:28;15.10;;;10.20;;
78838;SDS011;68405;47.190;27.558;2024-03-08T09:27:57;18.30;;;10.40;;
78838;SDS011;68405;47.190;27.558;2024-03-08T09:30:26;16.00;;;9.60;;
78838;SDS011;68405;47.190;27.558;2024-03-08T09:32:55;14.60;;;10.80;;
78838;SDS011;68405;47.190;27.558;2024-03-08T09:35:24;18.90;;;11.40;;
78838;SDS011;68405;47.190;27.558;2024-03-08T09:37:53;17.40;;;10.80;;
78838;SDS011;68405;47.190;27.558;2024-03-08T09:40:22;16.70;;;10.50;;
78838;SDS011;68405;47.190;27.558;2024-03-08T09:42:52;15.50;;;10.70;;
78838;SDS011;68405;47.190;27.558;2024-03-08T09:45:22;18.50;;;11.20;;
78838;SDS011;68405;47.190;27.558;2024-03-08T09:47:52;15.20;;;10.30;;
78838;SDS011;68405;47.190;27.558;2024-03-08T09:50:22;17.10;;;11.70;;
78838;SDS011;68405;47.190;27.558;2024-03-08T09:52:53;13.90;;;10.20;;
78838;SDS011;68405;47.190;27.558;2024-03-08T09:55:24;18.60;;;11.40;;
78838;SDS011;68405;47.190;27.558;2024-03-08T09:57:58;17.00;;;9.40;;
78838;SDS011;68405;47.190;27.558;2024-03-08T10:01:03;16.90;;;11.20;;
78838;SDS011;68405;47.190;27.558;2024-03-08T10:03:33;17.60;;;11.70;;
78838;SDS011;68405;47.190;27.558;2024-03-08T10:06:02;18.30;;;11.40;;
78838;SDS011;68405;47.190;27.558;2024-03-08T10:08:32;18.70;;;10.70;;
78838;SDS011;68405;47.190;27.558;2024-03-08T10:11:02;16.90;;;11.50;;
78838;SDS011;68405;47.190;27.558;2024-03-08T10:13:31;19.00;;;11.80;;
78838;SDS011;68405;47.190;27.558;2024-03-08T10:16:00;18.30;;;11.80;;
78838;SDS011;68405;47.190;27.558;2024-03-08T10:18:32;19.30;;;11.90;;
78838;SDS011;68405;47.190;27.558;2024-03-08T10:21:04;13.90;;;9.50;;
78838;SDS011;68405;47.190;27.558;2024-03-08T10:23:36;16.60;;;11.10;;
78838;SDS011;68405;47.190;27.558;2024-03-08T10:26:10;16.10;;;10.80;;
78838;SDS011;68405;47.190;27.558;2024-03-08T10:28:42;20.60;;;12.40;;
78838;SDS011;68405;47.190;27.558;2024-03-08T10:31:11;19.60;;;13.50;;
78838;SDS011;68405;47.190;27.558;2024-03-08T10:33:41;17.00;;;12.40;;
78838;SDS011;68405;47.190;27.558;2024-03-08T10:36:11;17.60;;;11.40;;
78838;SDS011;68405;47.190;27.558;2024-03-08T10:38:42;17.50;;;12.60;;
78838;SDS011;68405;47.190;27.558;2024-03-08T10:41:13;15.60;;;11.40;;
78838;SDS011;68405;47.190;27.558;2024-03-08T10:43:48;18.10;;;12.00;;
78838;SDS011;68405;47.190;27.558;2024-03-08T10:46:40;20.70;;;12.30;;
78838;SDS011;68405;47.190;27.558;2024-03-08T10:49:23;16.40;;;10.80;;
78838;SDS011;68405;47.190;27.558;2024-03-08T10:51:58;14.10;;;9.80;;
78838;SDS011;68405;47.190;27.558;2024-03-08T10:54:28;18.00;;;11.30;;
78838;SDS011;68405;47.190;27.558;2024-03-08T10:56:58;20.40;;;12.70;;
78838;SDS011;68405;47.190;27.558;2024-03-08T10:59:29;18.00;;;11.20;;
78838;SDS011;68405;47.190;27.558;2024-03-08T11:01:59;17.70;;;11.20;;
78838;SDS011;68405;47.190;27.558;2024-03-08T11:04:28;22.20;;;12.50;;
78838;SDS011;68405;47.190;27.558;2024-03-08T11:07:01;17.80;;;11.60;;
78838;SDS011;68405;47.190;27.558;2024-03-08T11:09:34;17.70;;;11.30;;
78838;SDS011;68405;47.190;27.558;2024-03-08T11:12:21;16.20;;;10.70;;
78838;SDS011;68405;47.190;27.558;2024-03-08T11:14:57;18.90;;;11.30;;
78838;SDS011;68405;47.190;27.558;2024-03-08T11:17:40;19.50;;;11.30;;
78838;SDS011;68405;47.190;27.558;2024-03-08T11:20:23;15.00;;;10.40;;
78838;SDS011;68405;47.190;27.558;2024-03-08T11:22:55;12.80;;;8.40;;
78838;SDS011;68405;47.190;27.558;2024-03-08T11:25:31;16.00;;;9.80;;
78838;SDS011;68405;47.190;27.558;2024-03-08T11:28:14;16.00;;;10.80;;
78838;SDS011;68405;47.190;27.558;2024-03-08T11:30:45;16.90;;;10.80;;
78838;SDS011;68405;47.190;27.558;2024-03-08T11:33:38;19.90;;;13.30;;
78838;SDS011;68405;47.190;27.558;2024-03-08T11:36:11;18.90;;;12.40;;
78838;SDS011;68405;47.190;27.558;2024-03-08T11:38:43;18.40;;;12.50;;
78838;SDS011;68405;47.190;27.558;2024-03-08T11:41:15;18.60;;;10.90;;
78838;SDS011;68405;47.190;27.558;2024-03-08T11:43:46;17.70;;;11.80;;
78838;SDS011;68405;47.190;27.558;2024-03-08T11:46:16;18.80;;;11.60;;
78838;SDS011;68405;47.190;27.558;2024-03-08T11:48:48;15.50;;;10.40;;
78838;SDS011;68405;47.190;27.558;2024-03-08T11:51:17;18.80;;;12.10;;
78838;SDS011;68405;47.190;27.558;2024-03-08T11:53:48;19.50;;;12.50;;
78838;SDS011;68405;47.190;27.558;2024-03-08T11:56:17;16.60;;;11.30;;
78838;SDS011;68405;47.190;27.558;2024-03-08T11:58:53;22.00;;;12.80;;
78838;SDS011;68405;47.190;27.558;2024-03-08T12:01:24;17.00;;;10.20;;
78838;SDS011;68405;47.190;27.558;2024-03-08T12:03:54;16.80;;;11.10;;
78838;SDS011;68405;47.190;27.558;2024-03-08T12:06:25;13.30;;;7.80;;
78838;SDS011;68405;47.190;27.558;2024-03-08T12:09:03;18.70;;;12.10;;
78838;SDS011;68405;47.190;27.558;2024-03-08T12:11:36;15.10;;;10.70;;
78838;SDS011;68405;47.190;27.558;2024-03-08T12:14:06;19.00;;;12.40;;
78838;SDS011;68405;47.190;27.558;2024-03-08T12:16:36;17.90;;;12.10;;
78838;SDS011;68405;47.190;27.558;2024-03-08T12:19:05;21.00;;;12.30;;
78838;SDS011;68405;47.190;27.558;2024-03-08T12:21:36;20.00;;;13.30;;
78838;SDS011;68405;47.190;27.558;2024-03-08T12:24:09;20.00;;;12.50;;
78838;SDS011;68405;47.190;27.558;2024-03-08T12:26:40;19.60;;;13.30;;
78838;SDS011;68405;47.190;27.558;2024-03-08T12:29:15;17.20;;;11.70;;
78838;SDS011;68405;47.190;27.558;2024-03-08T12:31:47;19.40;;;12.70;;
78838;SDS011;68405;47.190;27.558;2024-03-08T12:34:18;18.50;;;11.80;;
78838;SDS011;68405;47.190;27.558;2024-03-08T12:36:47;18.50;;;10.60;;
78838;SDS011;68405;47.190;27.558;2024-03-08T12:39:19;18.80;;;12.80;;
78838;SDS011;68405;47.190;27.558;2024-03-08T12:41:53;19.10;;;13.00;;
78838;SDS011;68405;47.190;27.558;2024-03-08T12:44:23;17.60;;;12.00;;
78838;SDS011;68405;47.190;27.558;2024-03-08T12:46:54;18.80;;;10.90;;
78838;SDS011;68405;47.190;27.558;2024-03-08T12:49:25;16.80;;;12.00;;
78838;SDS011;68405;47.190;27.558;2024-03-08T12:51:54;21.80;;;11.90;;
78838;SDS011;68405;47.190;27.558;2024-03-08T12:54:23;17.40;;;11.20;;
78838;SDS011;68405;47.190;27.558;2024-03-08T12:56:52;16.10;;;10.50;;
78838;SDS011;68405;47.190;27.558;2024-03-08T12:59:22;18.20;;;12.30;;
78838;SDS011;68405;47.190;27.558;2024-03-08T13:01:51;22.50;;;13.40;;
78838;SDS011;68405;47.190;27.558;2024-03-08T13:04:20;19.00;;;11.90;;
78838;SDS011;68405;47.190;27.558;2024-03-08T13:06:49;18.40;;;11.10;;
78838;SDS011;68405;47.190;27.558;2024-03-08T13:09:18;15.30;;;10.30;;
78838;SDS011;68405;47.190;27.558;2024-03-08T13:11:48;19.30;;;12.70;;
78838;SDS011;68405;47.190;27.558;2024-03-08T13:14:18;19.30;;;12.70;;
78838;SDS011;68405;47.190;27.558;2024-03-08T13:16:47;17.60;;;11.80;;
78838;SDS011;68405;47.190;27.558;2024-03-08T13:19:18;15.80;;;10.30;;
78838;SDS011;68405;47.190;27.558;2024-03-08T13:21:48;19.00;;;11.70;;
78838;SDS011;68405;47.190;27.558;2024-03-08T13:24:17;19.70;;;12.60;;
78838;SDS011;68405;47.190;27.558;2024-03-08T13:26:46;19.00;;;11.90;;
78838;SDS011;68405;47.190;27.558;2024-03-08T13:29:16;18.80;;;11.90;;
78838;SDS011;68405;47.190;27.558;2024-03-08T13:31:45;19.20;;;12.60;;
78838;SDS011;68405;47.190;27.558;2024-03-08T13:34:18;17.80;;;10.90;;
78838;SDS011;68405;47.190;27.558;2024-03-08T13:36:54;20.00;;;11.90;;
78838;SDS011;68405;47.190;27.558;2024-03-08T13:39:27;19.60;;;11.10;;
78838;SDS011;68405;47.190;27.558;2024-03-08T13:41:58;17.30;;;10.80;;
78838;SDS011;68405;47.190;27.558;2024-03-08T13:44:27;18.40;;;10.90;;
78838;SDS011;68405;47.190;27.558;2024-03-08T13:46:56;19.50;;;11.50;;
78838;SDS011;68405;47.190;27.558;2024-03-08T13:49:25;15.80;;;10.00;;
78838;SDS011;68405;47.190;27.558;2024-03-08T13:51:54;20.10;;;12.20;;
78838;SDS011;68405;47.190;27.558;2024-03-08T13:54:25;22.80;;;11.20;;
78838;SDS011;68405;47.190;27.558;2024-03-08T13:56:57;18.60;;;10.50;;
78838;SDS011;68405;47.190;27.558;2024-03-08T13:59:27;16.30;;;9.60;;
78838;SDS011;68405;47.190;27.558;2024-03-08T14:01:56;16.80;;;11.00;;
78838;SDS011;68405;47.190;27.558;2024-03-08T14:04:26;14.70;;;8.30;;
78838;SDS011;68405;47.190;27.558;2024-03-08T14:06:55;19.60;;;10.10;;
78838;SDS011;68405;47.190;27.558;2024-03-08T14:09:30;19.60;;;11.60;;
78838;SDS011;68405;47.190;27.558;2024-03-08T14:11:59;17.90;;;10.50;;
78838;SDS011;68405;47.190;27.558;2024-03-08T14:14:30;18.70;;;11.30;;
78838;SDS011;68405;47.190;27.558;2024-03-08T14:17:01;16.90;;;10.00;;
78838;SDS011;68405;47.190;27.558;2024-03-08T14:19:30;18.30;;;10.60;;
78838;SDS011;68405;47.190;27.558;2024-03-08T14:22:00;22.20;;;11.50;;
78838;SDS011;68405;47.190;27.558;2024-03-08T14:24:31;17.30;;;10.50;;
78838;SDS011;68405;47.190;27.558;2024-03-08T14:27:02;16.80;;;9.30;;
78838;SDS011;68405;47.190;27.558;2024-03-08T14:29:35;21.80;;;11.20;;
78838;SDS011;68405;47.190;27.558;2024-03-08T14:32:05;14.20;;;8.60;;
78838;SDS011;68405;47.190;27.558;2024-03-08T14:34:35;17.60;;;9.70;;
78838;SDS011;68405;47.190;27.558;2024-03-08T14:37:04;18.90;;;10.20;;
78838;SDS011;68405;47.190;27.558;2024-03-08T14:39:38;12.60;;;7.40;;
78838;SDS011;68405;47.190;27.558;2024-03-08T14:42:07;19.70;;;10.60;;